Time;durP1;ratioP1;P1;durP2;ratioP2;P2;SDS_P1;SDS_P2;PMS_P1;PMS_P2;Temp;Humidity;BMP_temperature;BMP_pressure;BME280_temperature;BME280_humidity;BME280_pressure;Samples;Min_cycle;Max_cycle;Signal;HPM_P1;HPM_P2
2022/03/06 00:00:08;;;;;;;23.67;12.87;;;;;;;-2.00;100.00;95387.34;5055637;28;20193;-72
2022/03/06 00:02:34;;;;;;;21.37;11.13;;;;;;;-2.03;100.00;95387.22;5055054;28;20223;-59
2022/03/06 00:04:59;;;;;;;26.87;13.00;;;;;;;-2.07;100.00;95391.66;5054738;28;20182;-59
2022/03/06 00:07:24;;;;;;;24.93;12.67;;;;;;;-2.07;100.00;95386.31;5055028;28;20267;-60
2022/03/06 00:09:50;;;;;;;26.93;13.63;;;;;;;-2.12;100.00;95389.19;5055462;28;20254;-59
2022/03/06 00:12:15;;;;;;;23.80;12.37;;;;;;;-2.13;100.00;95388.38;5055734;28;20233;-60
2022/03/06 00:14:41;;;;;;;25.80;13.43;;;;;;;-2.10;100.00;95389.63;5054787;28;20198;-60
2022/03/06 00:17:06;;;;;;;22.40;12.37;;;;;;;-2.13;100.00;95383.03;5054892;28;20194;-48
2022/03/06 00:19:31;;;;;;;22.23;12.13;;;;;;;-2.14;100.00;95391.38;5054717;28;20208;-59
2022/03/06 00:21:57;;;;;;;25.87;12.40;;;;;;;-2.19;100.00;95387.00;5055358;28;20232;-58
2022/03/06 00:24:22;;;;;;;22.83;11.87;;;;;;;-2.17;100.00;95389.34;5054743;28;20186;-58
2022/03/06 00:26:47;;;;;;;21.47;11.40;;;;;;;-2.19;100.00;95395.00;5054584;28;20214;-59
2022/03/06 00:29:13;;;;;;;21.80;11.57;;;;;;;-2.20;100.00;95388.09;5054629;28;20192;-59
2022/03/06 00:31:39;;;;;;;19.97;11.50;;;;;;;-2.25;100.00;95395.53;5054747;28;20209;-58
2022/03/06 00:34:05;;;;;;;20.93;11.30;;;;;;;-2.26;100.00;95394.72;5070801;28;20189;-58
2022/03/06 00:36:30;;;;;;;23.63;13.00;;;;;;;-2.31;100.00;95392.25;5071159;28;20202;-48
2022/03/06 00:38:55;;;;;;;23.03;12.30;;;;;;;-2.29;100.00;95391.94;5054762;28;20273;-58
2022/03/06 00:41:23;;;;;;;22.80;12.13;;;;;;;-2.30;100.00;95401.06;5054818;28;20190;-56
2022/03/06 00:43:49;;;;;;;24.07;12.60;;;;;;;-2.31;100.00;95391.44;5054435;28;20578;-58
2022/03/06 00:46:15;;;;;;;23.30;12.07;;;;;;;-2.36;100.00;95388.97;5054327;28;20206;-57
2022/03/06 00:48:40;;;;;;;23.23;12.10;;;;;;;-2.38;100.00;95389.28;5054159;28;20196;-58
2022/03/06 00:51:06;;;;;;;25.73;12.60;;;;;;;-2.42;100.00;95385.69;5054180;28;20186;-58
2022/03/06 00:53:31;;;;;;;24.23;12.47;;;;;;;-2.42;100.00;95390.25;5054300;28;20269;-60
2022/03/06 00:55:56;;;;;;;24.10;13.27;;;;;;;-2.43;100.00;95383.34;5054225;28;20190;-49
2022/03/06 00:58:22;;;;;;;22.73;12.07;;;;;;;-2.46;100.00;95389.31;5054251;28;20274;-59
2022/03/06 01:00:48;;;;;;;19.57;11.30;;;;;;;-2.50;100.00;95388.41;5054401;28;20193;-60
2022/03/06 01:03:19;;;;;;;25.50;12.17;;;;;;;-2.50;100.00;95380.38;5053943;28;20209;-59
2022/03/06 01:05:45;;;;;;;24.63;12.43;;;;;;;-2.53;100.00;95383.69;5054090;28;20174;-59
2022/03/06 01:08:11;;;;;;;20.00;11.23;;;;;;;-2.56;100.00;95379.00;5053405;28;20205;-59
2022/03/06 01:10:39;;;;;;;25.27;12.33;;;;;;;-2.57;100.00;95372.06;5053820;28;20182;-59
2022/03/06 01:13:07;;;;;;;24.37;13.47;;;;;;;-2.59;100.00;95385.00;5054107;28;20186;-71
2022/03/06 01:15:33;;;;;;;23.90;12.20;;;;;;;-2.59;100.00;95379.66;5054192;28;20250;-49
2022/03/06 01:17:59;;;;;;;24.57;12.37;;;;;;;-2.64;100.00;95385.16;5053919;28;20213;-48
2022/03/06 01:20:25;;;;;;;26.37;13.27;;;;;;;-2.63;100.00;95390.16;5053690;28;20511;-46
2022/03/06 01:22:51;;;;;;;22.07;11.87;;;;;;;-2.63;100.00;95384.06;5054235;28;20769;-48
2022/03/06 01:25:16;;;;;;;25.67;12.80;;;;;;;-2.65;100.00;95391.59;5054168;28;20197;-47
2022/03/06 01:27:42;;;;;;;23.83;13.17;;;;;;;-2.66;100.00;95384.69;5053669;28;20580;-48
2022/03/06 01:30:09;;;;;;;25.33;13.50;;;;;;;-2.64;100.00;95385.16;5053673;28;20190;-53
2022/03/06 01:32:35;;;;;;;27.17;12.87;;;;;;;-2.67;100.00;95383.09;5053647;28;20182;-47
2022/03/06 01:35:01;;;;;;;25.30;12.63;;;;;;;-2.65;100.00;95381.72;5053617;28;20273;-47
2022/03/06 01:37:26;;;;;;;26.07;13.47;;;;;;;-2.68;100.00;95386.88;5054100;28;20261;-51
2022/03/06 01:39:52;;;;;;;25.50;12.63;;;;;;;-2.68;100.00;95386.88;5053517;28;20271;-48
2022/03/06 01:42:18;;;;;;;26.93;14.00;;;;;;;-2.71;100.00;95379.50;5053397;28;20203;-47
2022/03/06 01:44:45;;;;;;;25.70;13.23;;;;;;;-2.72;100.00;95386.75;5053110;28;20189;-49
2022/03/06 01:47:10;;;;;;;24.67;13.33;;;;;;;-2.74;100.00;95388.19;5053326;28;20201;-48
2022/03/06 01:49:36;;;;;;;25.23;12.70;;;;;;;-2.75;100.00;95381.25;5053255;28;20190;-53
2022/03/06 01:52:01;;;;;;;24.00;12.80;;;;;;;-2.73;100.00;95379.81;5053514;28;20186;-45
2022/03/06 01:54:27;;;;;;;28.00;14.23;;;;;;;-2.76;100.00;95380.50;5053212;28;20249;-46
2022/03/06 01:56:52;;;;;;;24.83;13.13;;;;;;;-2.78;100.00;95387.22;5053312;28;20237;-46
2022/03/06 01:59:18;;;;;;;24.83;12.47;;;;;;;-2.79;100.00;95391.00;5069875;28;20243;-45
2022/03/06 02:01:43;;;;;;;28.43;13.70;;;;;;;-2.78;100.00;95387.22;5053108;28;20184;-45
2022/03/06 02:04:09;;;;;;;23.77;11.93;;;;;;;-2.78;100.00;95381.88;5053021;28;20208;-46
2022/03/06 02:06:36;;;;;;;23.43;12.73;;;;;;;-2.80;100.00;95389.44;5053584;28;20232;-46
2022/03/06 02:09:02;;;;;;;25.23;12.93;;;;;;;-2.83;100.00;95374.06;5052905;28;20189;-72
2022/03/06 02:11:28;;;;;;;28.17;14.07;;;;;;;-2.85;100.00;95370.94;5052882;28;20200;-73
2022/03/06 02:13:55;;;;;;;23.77;13.40;;;;;;;-2.87;100.00;95373.94;5053688;28;20193;-73
2022/03/06 02:16:21;;;;;;;27.43;13.33;;;;;;;-2.89;100.00;95373.44;5053220;28;20255;-72
2022/03/06 02:18:46;;;;;;;27.63;13.73;;;;;;;-2.91;100.00;95378.34;5052114;28;20182;-73
2022/03/06 02:21:13;;;;;;;26.70;13.43;;;;;;;-2.90;100.00;95377.22;5052792;28;20186;-73
2022/03/06 02:23:40;;;;;;;27.37;13.83;;;;;;;-2.90;100.00;95368.41;5053353;28;20194;-73
2022/03/06 02:26:07;;;;;;;25.30;14.17;;;;;;;-2.92;100.00;95370.66;5053072;28;20228;-56
2022/03/06 02:28:33;;;;;;;29.70;14.07;;;;;;;-2.91;100.00;95372.19;5052778;28;20182;-52
2022/03/06 02:30:59;;;;;;;28.13;14.20;;;;;;;-2.96;100.00;95364.38;5053104;28;20193;-49
2022/03/06 02:33:24;;;;;;;29.40;13.93;;;;;;;-2.98;100.00;95367.34;5052918;28;20185;-52
2022/03/06 02:35:50;;;;;;;29.03;14.70;;;;;;;-3.01;100.00;95367.19;5052659;28;20197;-50
2022/03/06 02:38:15;;;;;;;27.60;13.73;;;;;;;-3.03;100.00;95369.41;5052765;28;20188;-52
2022/03/06 02:40:42;;;;;;;31.20;14.70;;;;;;;-3.04;100.00;95373.97;5053078;28;20196;-48
2022/03/06 02:43:09;;;;;;;29.60;14.70;;;;;;;-3.06;100.00;95380.72;5052538;28;20200;-55
2022/03/06 02:45:35;;;;;;;24.63;14.00;;;;;;;-3.07;100.00;95379.16;5053663;28;20194;-51
2022/03/06 02:48:01;;;;;;;27.03;13.93;;;;;;;-3.10;100.00;95374.44;5052514;28;20220;-53
2022/03/06 02:50:29;;;;;;;28.00;13.93;;;;;;;-3.12;100.00;95372.09;5052573;28;20182;-54
2022/03/06 02:52:55;;;;;;;27.00;14.07;;;;;;;-3.11;100.00;95367.53;5052646;28;20192;-51
2022/03/06 02:55:21;;;;;;;30.83;15.00;;;;;;;-3.12;100.00;95376.66;5052466;28;20231;-55
2022/03/06 02:57:47;;;;;;;30.80;14.10;;;;;;;-3.12;100.00;95376.66;5052353;28;20213;-54
2022/03/06 03:00:18;;;;;;;27.13;13.77;;;;;;;-3.14;100.00;95376.19;5052336;28;20194;-53
2022/03/06 03:02:44;;;;;;;31.20;14.60;;;;;;;-3.13;100.00;95380.41;5052285;28;20198;-45
2022/03/06 03:05:11;;;;;;;31.63;14.80;;;;;;;-3.11;100.00;95384.34;5052557;28;20190;-59
2022/03/06 03:07:45;;;;;;;29.60;14.47;;;;;;;-3.10;100.00;95377.13;5052883;28;20237;-59
2022/03/06 03:10:14;;;;;;;28.60;13.93;;;;;;;-3.10;100.00;95382.47;5052809;28;20189;-59
2022/03/06 03:12:40;;;;;;;25.87;14.00;;;;;;;-3.09;100.00;95381.34;5052052;28;20648;-59
2022/03/06 03:15:08;;;;;;;27.57;14.00;;;;;;;-3.09;100.00;95387.50;5052084;28;20188;-58
2022/03/06 03:17:33;;;;;;;28.37;14.67;;;;;;;-3.10;100.00;95387.81;5052151;28;20247;-59
2022/03/06 03:19:59;;;;;;;25.07;14.27;;;;;;;-3.14;100.00;95400.97;5052414;28;20190;-71
2022/03/06 03:22:24;;;;;;;27.70;14.07;;;;;;;-3.14;100.00;95394.88;5052412;28;20182;-46
2022/03/06 03:24:50;;;;;;;29.90;14.40;;;;;;;-3.13;100.00;95391.91;5052109;28;20347;-52
2022/03/06 03:27:15;;;;;;;30.80;14.47;;;;;;;-3.13;100.00;95383.09;5052054;28;20210;-54
2022/03/06 03:29:40;;;;;;;29.60;14.50;;;;;;;-3.14;100.00;95384.19;5051816;28;20186;-55
2022/03/06 03:32:06;;;;;;;27.50;13.73;;;;;;;-3.14;100.00;95389.53;5055763;28;20197;-53
2022/03/06 03:34:32;;;;;;;28.23;14.40;;;;;;;-3.15;100.00;95393.28;5055462;28;20184;-55
2022/03/06 03:36:57;;;;;;;26.60;14.33;;;;;;;-3.17;100.00;95387.50;5055361;28;20214;-54
2022/03/06 03:39:22;;;;;;;29.23;14.70;;;;;;;-3.18;100.00;95401.94;5055686;28;20289;-46
2022/03/06 03:41:48;;;;;;;28.33;14.80;;;;;;;-3.20;100.00;95404.13;5055467;28;20201;-52
2022/03/06 03:44:13;;;;;;;28.77;14.73;;;;;;;-3.18;100.00;95407.28;5055238;28;20251;-55
2022/03/06 03:46:38;;;;;;;30.30;14.87;;;;;;;-3.14;100.00;95410.91;5055129;28;20216;-55
2022/03/06 03:49:04;;;;;;;28.50;14.43;;;;;;;-3.15;100.00;95410.09;5055273;28;20189;-55
2022/03/06 03:51:30;;;;;;;27.27;14.63;;;;;;;-3.16;100.00;95413.09;5055229;28;20280;-53
2022/03/06 03:53:55;;;;;;;27.10;14.90;;;;;;;-3.11;100.00;95415.56;5055114;28;20194;-54
2022/03/06 03:56:23;;;;;;;28.47;15.10;;;;;;;-3.09;100.00;95418.72;5055221;28;20217;-53
2022/03/06 03:58:50;;;;;;;25.23;14.03;;;;;;;-3.04;100.00;95423.91;5055112;28;20185;-56
2022/03/06 04:01:17;;;;;;;27.23;14.53;;;;;;;-3.06;100.00;95412.75;5055236;28;20186;-45
2022/03/06 04:03:43;;;;;;;28.50;14.97;;;;;;;-3.04;100.00;95421.22;5054998;28;20209;-45
2022/03/06 04:06:08;;;;;;;28.43;14.63;;;;;;;-3.04;100.00;95423.91;5054824;28;20263;-47
2022/03/06 04:08:34;;;;;;;28.93;14.43;;;;;;;-3.01;100.00;95420.59;5055296;28;20190;-49
2022/03/06 04:10:59;;;;;;;27.80;14.77;;;;;;;-3.02;100.00;95408.34;5055042;28;20197;-47
2022/03/06 04:13:26;;;;;;;26.97;14.10;;;;;;;-3.01;100.00;95415.25;5055486;28;20229;-51
2022/03/06 04:15:51;;;;;;;28.53;14.80;;;;;;;-3.03;100.00;95418.25;5055182;28;20199;-52
2022/03/06 04:18:16;;;;;;;26.60;14.43;;;;;;;-3.02;100.00;95424.38;5055348;28;20249;-57
2022/03/06 04:20:42;;;;;;;30.07;14.90;;;;;;;-3.01;100.00;95431.28;5054797;28;20204;-56
2022/03/06 04:23:08;;;;;;;27.03;14.87;;;;;;;-2.97;100.00;95426.88;5055384;28;20185;-56
2022/03/06 04:25:34;;;;;;;28.33;15.47;;;;;;;-2.96;100.00;95434.56;5055018;28;20220;-55
2022/03/06 04:27:59;;;;;;;28.97;15.37;;;;;;;-2.95;100.00;95432.69;5054653;28;20244;-56
2022/03/06 04:30:25;;;;;;;28.47;15.10;;;;;;;-2.94;100.00;95436.91;5054779;28;20194;-57
2022/03/06 04:32:51;;;;;;;27.83;14.67;;;;;;;-2.92;100.00;95432.06;5054533;28;20182;-58
2022/03/06 04:35:16;;;;;;;28.17;15.63;;;;;;;-2.93;100.00;95433.16;5054650;28;20189;-48
2022/03/06 04:37:41;;;;;;;35.63;15.90;;;;;;;-2.92;100.00;95440.84;5054470;28;20198;-45
2022/03/06 04:40:08;;;;;;;28.53;14.83;;;;;;;-2.92;100.00;95434.72;5054605;28;20280;-44
2022/03/06 04:42:33;;;;;;;25.37;13.90;;;;;;;-2.90;100.00;95432.50;5053134;28;20190;-45
2022/03/06 04:44:59;;;;;;;31.60;15.37;;;;;;;-2.93;100.00;95433.16;5054410;28;20178;-44
2022/03/06 04:47:24;;;;;;;28.93;14.67;;;;;;;-2.89;100.00;95436.75;5054626;28;20289;-45
2022/03/06 04:49:49;;;;;;;28.03;15.03;;;;;;;-2.89;100.00;95436.75;5054200;28;20182;-45
2022/03/06 04:52:15;;;;;;;30.97;15.43;;;;;;;-2.91;100.00;95430.94;5054384;28;20182;-49
2022/03/06 04:54:40;;;;;;;30.80;14.73;;;;;;;-2.93;100.00;95435.81;5054147;28;20190;-71
2022/03/06 04:57:05;;;;;;;32.03;16.33;;;;;;;-2.95;100.00;95441.47;5054121;28;20232;-46
2022/03/06 04:59:31;;;;;;;28.70;14.77;;;;;;;-2.96;100.00;95439.91;5054031;28;20186;-47
2022/03/06 05:01:56;;;;;;;27.93;14.60;;;;;;;-2.98;100.00;95436.00;5053995;28;20223;-47
2022/03/06 05:04:22;;;;;;;28.47;14.63;;;;;;;-2.98;100.00;95433.31;5053928;28;20189;-46
2022/03/06 05:06:47;;;;;;;27.30;14.33;;;;;;;-2.99;100.00;95434.44;5070402;28;20210;-46
2022/03/06 05:09:13;;;;;;;28.37;15.13;;;;;;;-3.00;100.00;95446.19;5053774;28;20189;-48
2022/03/06 05:11:38;;;;;;;26.97;13.87;;;;;;;-3.04;100.00;95442.59;5054027;28;20192;-55
2022/03/06 05:14:04;;;;;;;28.83;15.07;;;;;;;-3.06;100.00;95432.22;5054000;28;20178;-58
2022/03/06 05:16:29;;;;;;;23.13;13.40;;;;;;;-3.04;100.00;95442.59;5053848;28;20185;-60
2022/03/06 05:18:56;;;;;;;27.57;14.10;;;;;;;-3.07;100.00;95440.56;5053872;28;20265;-59
2022/03/06 05:21:21;;;;;;;29.47;14.17;;;;;;;-3.10;100.00;95433.19;5054423;28;20274;-58
2022/03/06 05:23:47;;;;;;;27.43;14.80;;;;;;;-3.12;100.00;95430.03;5053609;28;20209;-59
2022/03/06 05:26:12;;;;;;;27.90;13.97;;;;;;;-3.07;100.00;95440.56;5054177;28;20296;-59
2022/03/06 05:28:39;;;;;;;27.27;14.47;;;;;;;-3.15;100.00;95441.34;5053774;28;20177;-59
2022/03/06 05:31:05;;;;;;;28.90;14.70;;;;;;;-3.18;100.00;95442.00;5053603;28;20190;-55
2022/03/06 05:33:30;;;;;;;28.00;14.70;;;;;;;-3.23;100.00;95445.59;5054155;28;20246;-45
2022/03/06 05:35:55;;;;;;;27.93;14.40;;;;;;;-3.25;100.00;95450.44;5053227;28;20186;-45
2022/03/06 05:38:21;;;;;;;28.87;15.40;;;;;;;-3.27;100.00;95449.19;5053576;28;20181;-47
2022/03/06 05:40:47;;;;;;;28.70;13.73;;;;;;;-3.27;100.00;95452.66;5053371;28;20213;-44
2022/03/06 05:43:12;;;;;;;30.10;15.83;;;;;;;-3.30;100.00;95450.63;5053582;28;20181;-45
2022/03/06 05:45:37;;;;;;;28.27;15.03;;;;;;;-3.34;100.00;95451.56;5053595;28;20280;-45
2022/03/06 05:48:03;;;;;;;28.93;14.87;;;;;;;-3.36;100.00;95451.09;5053440;28;20240;-55
2022/03/06 05:50:28;;;;;;;26.17;14.03;;;;;;;-3.38;100.00;95453.28;5053191;28;20281;-50
2022/03/06 05:52:54;;;;;;;27.47;14.57;;;;;;;-3.39;100.00;95457.81;5053136;28;20178;-50
2022/03/06 05:55:19;;;;;;;29.23;15.10;;;;;;;-3.38;100.00;95462.84;5053235;28;20186;-49
2022/03/06 05:57:45;;;;;;;25.57;13.87;;;;;;;-3.39;100.00;95457.06;5053625;28;20185;-49
2022/03/06 06:00:11;;;;;;;27.33;14.43;;;;;;;-3.36;100.00;95467.88;5052991;28;20193;-50
2022/03/06 06:02:40;;;;;;;27.43;14.70;;;;;;;-3.34;100.00;95467.56;5053285;28;20262;-48
2022/03/06 06:05:06;;;;;;;28.00;14.83;;;;;;;-3.27;100.00;95459.88;5054044;28;20217;-58
2022/03/06 06:07:32;;;;;;;25.97;14.47;;;;;;;-3.27;100.00;95468.69;5053141;28;20267;-55
2022/03/06 06:09:58;;;;;;;32.23;14.50;;;;;;;-3.20;100.00;95468.19;5053697;28;20190;-57
2022/03/06 06:12:23;;;;;;;25.60;14.33;;;;;;;-3.11;100.00;95466.31;5053067;28;20190;-57
2022/03/06 06:14:49;;;;;;;26.77;14.80;;;;;;;-3.05;100.00;95470.38;5053050;28;20212;-58
2022/03/06 06:17:14;;;;;;;27.90;14.57;;;;;;;-2.97;100.00;95474.94;5053295;28;20219;-57
2022/03/06 06:19:40;;;;;;;29.63;14.47;;;;;;;-2.92;100.00;95474.78;5052996;28;20240;-59
2022/03/06 06:22:05;;;;;;;32.27;16.27;;;;;;;-2.89;100.00;95477.59;5052737;28;20190;-58
2022/03/06 06:24:30;;;;;;;25.00;14.17;;;;;;;-2.77;100.00;95469.72;5053091;28;20185;-50
2022/03/06 06:26:56;;;;;;;30.17;15.53;;;;;;;-2.71;100.00;95467.66;5052887;28;20233;-50
2022/03/06 06:29:23;;;;;;;27.33;14.37;;;;;;;-2.63;100.00;95477.56;5052818;28;20186;-52
2022/03/06 06:31:49;;;;;;;28.37;14.13;;;;;;;-2.55;100.00;95460.72;5052727;28;20178;-51
2022/03/06 06:34:15;;;;;;;27.83;14.67;;;;;;;-2.47;100.00;95465.25;5052411;28;20271;-52
2022/03/06 06:36:40;;;;;;;29.60;14.77;;;;;;;-2.41;100.00;95467.44;5053179;28;20190;-50
2022/03/06 06:39:05;;;;;;;26.93;14.60;;;;;;;-2.24;100.00;95461.25;5053110;28;20177;-49
2022/03/06 06:41:31;;;;;;;27.80;15.80;;;;;;;-2.09;100.00;95458.03;5052530;28;20190;-52
2022/03/06 06:43:56;;;;;;;27.97;14.90;;;;;;;-1.74;100.00;95467.47;5052595;28;20189;-53
2022/03/06 06:46:21;;;;;;;28.60;15.23;;;;;;;-1.59;100.00;95473.06;5052293;28;20213;-47
2022/03/06 06:48:47;;;;;;;29.27;13.93;;;;;;;-1.12;100.00;95476.34;5052484;28;20189;-46
2022/03/06 06:51:12;;;;;;;27.63;15.27;;;;;;;-0.74;100.00;95471.59;5053121;28;20252;-48
2022/03/06 06:53:38;;;;;;;25.37;14.73;;;;;;;0.09;100.00;95472.91;5052386;28;20174;-51
2022/03/06 06:56:03;;;;;;;26.30;14.90;;;;;;;0.64;100.00;95481.16;5052868;28;20220;-47
2022/03/06 06:58:29;;;;;;;27.10;14.50;;;;;;;1.42;100.00;95482.28;5069144;28;20184;-52
2022/03/06 07:00:54;;;;;;;23.93;14.33;;;;;;;1.78;100.00;95479.44;5052472;28;20185;-45
2022/03/06 07:03:19;;;;;;;25.70;14.80;;;;;;;2.19;100.00;95484.31;5052399;28;20198;-44
2022/03/06 07:05:47;;;;;;;24.17;14.50;;;;;;;1.74;100.00;95500.09;5054117;28;20185;-45
2022/03/06 07:08:13;;;;;;;24.67;14.30;;;;;;;1.77;100.00;95502.09;5055710;28;20210;-47
2022/03/06 07:10:38;;;;;;;26.33;14.90;;;;;;;2.04;100.00;95498.56;5072974;28;20181;-47
2022/03/06 07:13:03;;;;;;;25.90;15.40;;;;;;;2.42;100.00;95501.47;5056352;28;20182;-45
2022/03/06 07:15:32;;;;;;;23.70;14.67;;;;;;;2.83;100.00;95492.00;5055943;28;20197;-45
2022/03/06 07:17:58;;;;;;;23.67;14.73;;;;;;;2.85;100.00;95506.69;5055881;28;20191;-45
2022/03/06 07:20:23;;;;;;;25.23;15.23;;;;;;;3.00;100.00;95514.00;5056122;28;20241;-45
2022/03/06 07:22:49;;;;;;;23.97;15.10;;;;;;;2.40;100.00;95511.00;5072811;28;20207;-56
2022/03/06 07:25:14;;;;;;;22.20;14.00;;;;;;;1.77;100.00;95510.16;5056067;28;20200;-55
2022/03/06 07:27:40;;;;;;;23.00;14.30;;;;;;;1.79;100.00;95513.28;5072795;28;20217;-57
2022/03/06 07:30:06;;;;;;;25.07;15.10;;;;;;;1.94;100.00;95507.16;5055521;28;20296;-57
2022/03/06 07:32:31;;;;;;;24.23;15.03;;;;;;;2.90;100.00;95503.75;5055535;28;20182;-54
2022/03/06 07:34:56;;;;;;;28.00;16.80;;;;;;;3.49;100.00;95503.44;5055152;28;20207;-56
2022/03/06 07:37:22;;;;;;;22.50;14.77;;;;;;;3.72;100.00;95501.59;5055859;28;20184;-46
2022/03/06 07:39:49;;;;;;;20.07;13.40;;;;;;;3.94;100.00;95508.19;5056298;28;20192;-58
2022/03/06 07:42:15;;;;;;;22.20;13.43;;;;;;;4.48;100.00;95500.66;5055830;28;20280;-53
2022/03/06 07:44:40;;;;;;;21.63;13.00;;;;;;;4.89;100.00;95505.97;5055342;28;20216;-53
2022/03/06 07:47:06;;;;;;;18.23;13.20;;;;;;;5.44;93.21;95504.41;5055113;28;20228;-52
2022/03/06 07:49:31;;;;;;;19.20;13.63;;;;;;;4.73;90.84;95508.00;5055320;28;20285;-53
2022/03/06 07:51:57;;;;;;;19.77;13.13;;;;;;;4.25;91.43;95516.06;5055599;28;20182;-53
2022/03/06 07:54:22;;;;;;;20.40;13.60;;;;;;;4.65;90.74;95521.78;5055183;28;20201;-53
2022/03/06 07:56:48;;;;;;;21.20;13.93;;;;;;;5.02;91.82;95498.38;5055573;28;20285;-48
2022/03/06 07:59:14;;;;;;;20.20;13.67;;;;;;;4.83;89.10;95503.91;5055079;28;20194;-46
2022/03/06 08:01:39;;;;;;;18.53;13.17;;;;;;;4.99;86.61;95513.44;5055163;28;20187;-46
2022/03/06 08:04:04;;;;;;;21.40;12.77;;;;;;;5.58;86.78;95504.59;5055098;28;20187;-49
2022/03/06 08:06:30;;;;;;;18.23;12.97;;;;;;;5.81;82.42;95518.81;5054761;28;20208;-45
2022/03/06 08:08:55;;;;;;;20.03;12.90;;;;;;;5.18;80.87;95513.34;5055433;28;20179;-48
2022/03/06 08:11:21;;;;;;;19.50;13.23;;;;;;;5.40;82.09;95517.09;5054891;28;20198;-47
2022/03/06 08:13:46;;;;;;;17.00;11.87;;;;;;;5.26;81.37;95516.91;5054777;28;20185;-76
2022/03/06 08:16:11;;;;;;;18.97;12.00;;;;;;;5.92;77.36;95527.84;5054737;28;20286;-58
2022/03/06 08:18:37;;;;;;;19.03;12.33;;;;;;;6.71;74.09;95518.19;5054729;28;20221;-58
2022/03/06 08:21:02;;;;;;;16.67;12.07;;;;;;;5.44;75.46;95526.06;5055583;28;20190;-58
2022/03/06 08:23:28;;;;;;;17.37;12.13;;;;;;;5.33;78.83;95514.31;5054651;28;20224;-58
2022/03/06 08:25:54;;;;;;;18.07;12.43;;;;;;;6.04;75.49;95517.53;5055002;28;20192;-59
2022/03/06 08:28:19;;;;;;;20.80;12.83;;;;;;;5.97;74.76;95524.78;5054746;28;20242;-58
2022/03/06 08:30:45;;;;;;;18.90;12.73;;;;;;;6.36;74.20;95517.84;5054761;28;20216;-58
2022/03/06 08:33:10;;;;;;;20.17;13.67;;;;;;;6.27;75.11;95515.44;5054875;28;20196;-51
2022/03/06 08:35:35;;;;;;;18.57;12.47;;;;;;;7.31;70.69;95518.59;5054818;28;20288;-60
2022/03/06 08:38:01;;;;;;;19.60;12.97;;;;;;;6.60;70.48;95514.63;5054687;28;20192;-59
2022/03/06 08:40:27;;;;;;;16.67;12.07;;;;;;;6.18;70.42;95522.31;5071055;28;20184;-59
2022/03/06 08:42:53;;;;;;;17.77;13.03;;;;;;;5.84;72.91;95518.09;5054261;28;20181;-59
2022/03/06 08:45:18;;;;;;;19.40;12.67;;;;;;;5.50;76.40;95514.53;5054251;28;20189;-59
2022/03/06 08:47:44;;;;;;;18.47;12.57;;;;;;;7.00;69.70;95519.97;5070821;28;20271;-60
2022/03/06 08:50:09;;;;;;;17.80;12.43;;;;;;;6.55;66.84;95515.72;5054781;28;20181;-59
2022/03/06 08:52:34;;;;;;;18.77;12.90;;;;;;;7.59;64.84;95514.13;5054607;28;20191;-59
2022/03/06 08:55:00;;;;;;;18.20;12.53;;;;;;;6.44;66.65;95519.47;5054428;28;20180;-57
2022/03/06 08:57:25;;;;;;;17.20;11.97;;;;;;;6.44;66.39;95520.28;5054161;28;20236;-55
2022/03/06 08:59:50;;;;;;;17.70;12.27;;;;;;;6.56;68.03;95516.53;5054175;28;20270;-58
2022/03/06 09:02:16;;;;;;;17.70;12.07;;;;;;;6.98;62.74;95511.41;5054218;28;20208;-56
2022/03/06 09:04:41;;;;;;;18.17;11.67;;;;;;;6.74;59.42;95514.75;5054137;28;20184;-56
2022/03/06 09:07:07;;;;;;;16.83;12.00;;;;;;;7.13;60.20;95496.78;5054361;28;20214;-55
2022/03/06 09:09:32;;;;;;;15.20;11.37;;;;;;;7.30;60.60;95496.13;5070279;28;20188;-53
2022/03/06 09:11:58;;;;;;;17.07;11.87;;;;;;;6.59;61.09;95508.41;5053761;28;20323;-56
2022/03/06 09:14:23;;;;;;;15.80;11.50;;;;;;;7.08;61.83;95499.88;5053918;28;20190;-74
2022/03/06 09:16:48;;;;;;;16.80;11.63;;;;;;;7.59;56.01;95505.97;5054031;28;20189;-74
2022/03/06 09:19:14;;;;;;;16.30;11.27;;;;;;;7.60;55.66;95515.69;5054074;28;20216;-66
2022/03/06 09:21:39;;;;;;;15.53;11.27;;;;;;;6.55;55.26;95509.50;5054376;28;20193;-67
2022/03/06 09:24:06;;;;;;;14.17;9.90;;;;;;;6.32;51.73;95501.56;5053673;28;20176;-65
2022/03/06 09:26:31;;;;;;;13.97;10.23;;;;;;;6.99;50.27;95507.53;5053673;28;20215;-65
2022/03/06 09:28:57;;;;;;;14.63;10.07;;;;;;;6.73;50.93;95499.59;5053011;28;20193;-52
2022/03/06 09:31:22;;;;;;;13.73;9.87;;;;;;;5.77;51.62;95523.38;5053283;28;20191;-58
2022/03/06 09:33:47;;;;;;;13.87;9.80;;;;;;;6.79;51.41;95503.53;5053572;28;20206;-61
2022/03/06 09:36:13;;;;;;;16.13;9.97;;;;;;;6.76;48.98;95515.13;5053897;28;20208;-58
2022/03/06 09:38:38;;;;;;;13.63;9.70;;;;;;;6.14;48.18;95506.03;5053502;28;20547;-57
2022/03/06 09:41:04;;;;;;;12.93;9.40;;;;;;;6.18;48.43;95512.28;5053413;28;20196;-58
2022/03/06 09:43:30;;;;;;;14.90;9.10;;;;;;;6.36;47.67;95507.00;5053981;28;20197;-58
2022/03/06 09:46:05;;;;;;;13.03;9.40;;;;;;;6.31;47.96;95501.94;5053148;28;20239;-56
2022/03/06 09:48:30;;;;;;;12.67;9.23;;;;;;;6.39;47.11;95506.28;5053315;28;20181;-62
2022/03/06 09:50:56;;;;;;;14.60;9.93;;;;;;;6.46;47.95;95495.50;5053324;28;20212;-56
2022/03/06 09:53:22;;;;;;;13.07;8.93;;;;;;;6.39;47.12;95501.63;5053292;28;20186;-57
2022/03/06 09:55:47;;;;;;;14.20;9.47;;;;;;;5.99;47.08;95506.25;5053111;28;20174;-55
2022/03/06 09:58:14;;;;;;;13.77;8.97;;;;;;;5.34;48.04;95507.75;5053456;28;20252;-54
2022/03/06 10:00:39;;;;;;;13.07;9.13;;;;;;;5.81;48.58;95518.81;5053210;28;20181;-52
2022/03/06 10:03:05;;;;;;;13.33;9.00;;;;;;;6.28;48.21;95522.44;5052857;28;20212;-55
2022/03/06 10:05:32;;;;;;;12.83;9.40;;;;;;;5.81;47.46;95518.81;5053271;28;20235;-56
2022/03/06 10:08:23;;;;;;;15.07;10.53;;;;;;;6.60;46.87;95506.47;5052811;28;20214;-52
2022/03/06 10:11:01;;;;;;;13.27;9.83;;;;;;;6.74;47.13;95512.03;5053557;28;20197;-48
2022/03/06 10:13:32;;;;;;;15.20;9.33;;;;;;;7.33;46.30;95511.66;5053591;28;20220;-56
2022/03/06 10:16:18;;;;;;;12.70;8.97;;;;;;;7.05;45.43;95500.63;5053378;28;20189;-54
2022/03/06 10:18:55;;;;;;;14.77;9.57;;;;;;;7.71;44.64;95486.63;5053014;28;20182;-48
2022/03/06 10:21:21;;;;;;;11.83;9.30;;;;;;;6.76;45.95;95504.28;5053170;28;20277;-51
2022/03/06 10:23:53;;;;;;;17.17;10.90;;;;;;;8.39;46.14;95500.06;5052762;28;20274;-60
2022/03/06 10:26:24;;;;;;;13.33;9.97;;;;;;;7.62;43.65;95518.81;5053502;28;20206;-59
2022/03/06 10:29:02;;;;;;;14.57;9.73;;;;;;;7.09;45.79;95501.41;5053464;28;20195;-57
2022/03/06 10:31:33;;;;;;;12.33;9.20;;;;;;;7.49;45.95;95506.69;5052541;28;20741;-56
2022/03/06 10:34:12;;;;;;;13.60;9.40;;;;;;;7.86;45.41;95503.78;5054083;28;20210;-58
2022/03/06 10:36:42;;;;;;;14.10;10.03;;;;;;;7.28;45.48;95498.44;5053147;28;20628;-57
2022/03/06 10:39:26;;;;;;;16.10;9.80;;;;;;;7.04;45.74;95515.34;5052663;28;20217;-58
2022/03/06 10:41:55;;;;;;;12.30;9.53;;;;;;;6.99;45.34;95512.97;5052353;28;20170;-62
2022/03/06 10:44:41;;;;;;;14.70;10.60;;;;;;;7.88;43.40;95488.63;5052642;28;20609;-58
2022/03/06 10:47:06;;;;;;;14.77;10.13;;;;;;;7.80;43.58;95497.94;5053038;28;20237;-59
2022/03/06 10:49:32;;;;;;;13.33;9.97;;;;;;;8.00;43.87;95496.44;5052697;28;20222;-58
2022/03/06 10:52:20;;;;;;;13.57;9.57;;;;;;;8.90;41.45;95499.72;5052411;28;20191;-60
2022/03/06 10:54:57;;;;;;;13.73;10.07;;;;;;;7.30;44.44;95504.28;5052466;28;20195;-59
2022/03/06 10:57:24;;;;;;;14.33;9.90;;;;;;;7.32;45.23;95515.53;5052559;28;20267;-56
2022/03/06 10:59:50;;;;;;;14.57;10.53;;;;;;;8.21;43.64;95501.97;5052044;28;20187;-59
2022/03/06 11:02:16;;;;;;;12.60;9.93;;;;;;;8.60;43.13;95491.91;5069012;28;20244;-59
2022/03/06 11:04:53;;;;;;;14.40;9.90;;;;;;;7.50;43.65;95500.09;5052404;28;20227;-56
2022/03/06 11:07:19;;;;;;;13.90;10.40;;;;;;;7.61;42.83;95490.06;5052795;28;20211;-53
2022/03/06 11:09:45;;;;;;;14.83;11.00;;;;;;;8.24;43.53;95484.88;5052493;28;20195;-52
2022/03/06 11:12:11;;;;;;;15.23;10.37;;;;;;;7.55;43.24;95494.31;5052269;28;20271;-50